^^
Meteo Knjazevac Station Historical Data
Daily Summary for June 23, 2021 Units:  Both    English   Metric
Daily Weekly Monthly Yearly Custom
  High: Low: Average:
Temperature: 51.8 °F /  11 °C 44.1 °F /  6.7 °C 48 °F /  8.9 °C
Dew Point: 48.2 °F /  9 °C 42.7 °F /  5.9 °C 46.4 °F /  8 °C
Humidity: 99% 85% 94%
Wind Speed: 7mph /  11.3km/h - 2.1mph /  3.4km/h
Wind Gust: 13mph /  20.9km/h - -
Wind- - WSW
Pressure: 30.24 in /  1023.9 hPa 30.19 in /  1022.2 hPa -
Precipitation: 0.00 in /  0 mm    
Historical Graphs
 
 
Tabular Data for June 23, 2021
Time Temperature Dew Point Pressure Wind Wind Speed Wind Gust Humidity Rainfall Rate (Hourly) solar Conditions
00:00 49.1 °F /  9.5 °C 47.4 °F /  8.6 °C 30.20in /  1022.6hPa SW 6mph /  9.7km/h 9mph /  14.5km/h 94% 0.00in /  0mm 0 W/m2
00:10 49.1 °F /  9.5 °C 47.4 °F /  8.6 °C 30.19in /  1022.2hPa SW 6mph /  9.7km/h 11mph /  17.7km/h 94% 0.00in /  0mm 0 W/m2
00:20 49.1 °F /  9.5 °C 47.4 °F /  8.6 °C 30.19in /  1022.2hPa SW 3mph /  4.8km/h 10mph /  16.1km/h 94% 0.00in /  0mm 0 W/m2
00:30 49.1 °F /  9.5 °C 47.4 °F /  8.6 °C 30.19in /  1022.2hPa SW 5mph /  8km/h 8mph /  12.9km/h 94% 0.00in /  0mm 0 W/m2
00:40 49.1 °F /  9.5 °C 47.4 °F /  8.6 °C 30.19in /  1022.2hPa SW 6mph /  9.7km/h 8mph /  12.9km/h 94% 0.00in /  0mm 0 W/m2
00:50 49.1 °F /  9.5 °C 47.4 °F /  8.6 °C 30.19in /  1022.2hPa SW 3mph /  4.8km/h 7mph /  11.3km/h 94% 0.00in /  0mm 0 W/m2
01:00 49.3 °F /  9.6 °C 47.3 °F /  8.5 °C 30.19in /  1022.2hPa SW 5mph /  8km/h 8mph /  12.9km/h 93% 0.00in /  0mm 0 W/m2
01:10 49.3 °F /  9.6 °C 47.3 °F /  8.5 °C 30.19in /  1022.2hPa SW 2mph /  3.2km/h 7mph /  11.3km/h 93% 0.00in /  0mm 0 W/m2
01:20 49.3 °F /  9.6 °C 47.3 °F /  8.5 °C 30.19in /  1022.2hPa WSW 1mph /  1.6km/h 3mph /  4.8km/h 93% 0.00in /  0mm 0 W/m2
01:30 49.5 °F /  9.7 °C 47.8 °F /  8.8 °C 30.19in /  1022.2hPa Calm   3mph /  4.8km/h 94% 0.00in /  0mm 0 W/m2
01:40 49.5 °F /  9.7 °C 47.5 °F /  8.6 °C 30.19in /  1022.2hPa SSW 3mph /  4.8km/h 5mph /  8km/h 93% 0.00in /  0mm 0 W/m2
01:50 49.6 °F /  9.8 °C 47.7 °F /  8.7 °C 30.19in /  1022.2hPa WSW 2mph /  3.2km/h 5mph /  8km/h 93% 0.00in /  0mm 0 W/m2
02:00 49.6 °F /  9.8 °C 47.7 °F /  8.7 °C 30.19in /  1022.2hPa WSW 1mph /  1.6km/h 3mph /  4.8km/h 93% 0.00in /  0mm 0 W/m2
02:10 49.8 °F /  9.9 °C 47.9 °F /  8.8 °C 30.19in /  1022.2hPa Calm   3mph /  4.8km/h 93% 0.00in /  0mm 0 W/m2
02:20 49.8 °F /  9.9 °C 47.9 °F /  8.8 °C 30.19in /  1022.2hPa WSW 3mph /  4.8km/h 5mph /  8km/h 93% 0.00in /  0mm 0 W/m2
02:30 49.8 °F /  9.9 °C 47.9 °F /  8.8 °C 30.19in /  1022.2hPa SW 1mph /  1.6km/h 5mph /  8km/h 93% 0.00in /  0mm 0 W/m2
02:40 49.8 °F /  9.9 °C 48.2 °F /  9 °C 30.19in /  1022.2hPa ESE 2mph /  3.2km/h 4mph /  6.4km/h 94% 0.00in /  0mm 0 W/m2
02:50 49.6 °F /  9.8 °C 48 °F /  8.9 °C 30.19in /  1022.2hPa Calm   4mph /  6.4km/h 94% 0.00in /  0mm 0 W/m2
03:00 49.6 °F /  9.8 °C 48 °F /  8.9 °C 30.19in /  1022.2hPa South 2mph /  3.2km/h 2mph /  3.2km/h 94% 0.00in /  0mm 0 W/m2
03:10 49.6 °F /  9.8 °C 48 °F /  8.9 °C 30.19in /  1022.2hPa NW 1mph /  1.6km/h 2mph /  3.2km/h 94% 0.00in /  0mm 0 W/m2
03:20 49.6 °F /  9.8 °C 48 °F /  8.9 °C 30.19in /  1022.2hPa Calm   2mph /  3.2km/h 94% 0.00in /  0mm 0 W/m2
03:30 49.6 °F /  9.8 °C 48 °F /  8.9 °C 30.19in /  1022.2hPa WSW 1mph /  1.6km/h 3mph /  4.8km/h 94% 0.00in /  0mm 0 W/m2
03:40 49.5 °F /  9.7 °C 47.8 °F /  8.8 °C 30.19in /  1022.2hPa SW 2mph /  3.2km/h 3mph /  4.8km/h 94% 0.00in /  0mm 0 W/m2
03:50 49.3 °F /  9.6 °C 47.6 °F /  8.7 °C 30.19in /  1022.2hPa Calm   3mph /  4.8km/h 94% 0.00in /  0mm 0 W/m2
04:00 49.1 °F /  9.5 °C 47.7 °F /  8.7 °C 30.19in /  1022.2hPa Calm   2mph /  3.2km/h 95% 0.00in /  0mm 0 W/m2
04:10 49.1 °F /  9.5 °C 47.4 °F /  8.6 °C 30.19in /  1022.2hPa SW 1mph /  1.6km/h 5mph /  8km/h 94% 0.00in /  0mm 0 W/m2
04:20 48.8 °F /  9.3 °C 47.1 °F /  8.4 °C 30.19in /  1022.2hPa West 2mph /  3.2km/h 3mph /  4.8km/h 94% 0.00in /  0mm 0 W/m2
04:30 48.7 °F /  9.3 °C 47.1 °F /  8.4 °C 30.19in /  1022.2hPa West 2mph /  3.2km/h 4mph /  6.4km/h 94% 0.00in /  0mm 0 W/m2
04:40 48.6 °F /  9.2 °C 46.9 °F /  8.3 °C 30.19in /  1022.2hPa NW 1mph /  1.6km/h 2mph /  3.2km/h 94% 0.00in /  0mm 0 W/m2
04:50 48.4 °F /  9.1 °C 46.7 °F /  8.2 °C 30.19in /  1022.2hPa West 2mph /  3.2km/h 3mph /  4.8km/h 94% 0.00in /  0mm 0 W/m2
05:00 47.8 °F /  8.8 °C 46.2 °F /  7.9 °C 30.19in /  1022.2hPa West 3mph /  4.8km/h 6mph /  9.7km/h 94% 0.00in /  0mm 0 W/m2
05:10 47.7 °F /  8.7 °C 46.3 °F /  7.9 °C 30.19in /  1022.2hPa West 3mph /  4.8km/h 6mph /  9.7km/h 95% 0.00in /  0mm 0 W/m2
05:20 47.7 °F /  8.7 °C 46.3 °F /  7.9 °C 30.19in /  1022.2hPa West 3mph /  4.8km/h 5mph /  8km/h 95% 0.00in /  0mm 0 W/m2
05:30 47.5 °F /  8.6 °C 46.2 °F /  7.9 °C 30.19in /  1022.2hPa WSW 2mph /  3.2km/h 5mph /  8km/h 95% 0.00in /  0mm 0 W/m2
05:40 47.1 °F /  8.4 °C 45.5 °F /  7.5 °C 30.19in /  1022.2hPa West 3mph /  4.8km/h 6mph /  9.7km/h 94% 0.00in /  0mm 0 W/m2
05:50 46.6 °F /  8.1 °C 45.2 °F /  7.3 °C 30.19in /  1022.2hPa West 3mph /  4.8km/h 5mph /  8km/h 95% 0.00in /  0mm 0 W/m2
06:00 46.4 °F /  8 °C 45 °F /  7.2 °C 30.20in /  1022.6hPa West 2mph /  3.2km/h 5mph /  8km/h 95% 0.00in /  0mm 0 W/m2
06:10 46.2 °F /  7.9 °C 44.9 °F /  7.2 °C 30.20in /  1022.6hPa Calm   3mph /  4.8km/h 95% 0.00in /  0mm 0 W/m2
06:20 45.9 °F /  7.7 °C 44.3 °F /  6.8 °C 30.21in /  1022.9hPa WNW 1mph /  1.6km/h 1mph /  1.6km/h 94% 0.00in /  0mm 4 W/m2
06:30 45.7 °F /  7.6 °C 44.1 °F /  6.7 °C 30.21in /  1022.9hPa WSW 1mph /  1.6km/h 3mph /  4.8km/h 94% 0.00in /  0mm 11 W/m2
06:40 45.1 °F /  7.3 °C 43.8 °F /  6.6 °C 30.21in /  1022.9hPa West 1mph /  1.6km/h 2mph /  3.2km/h 95% 0.00in /  0mm 19 W/m2
06:50 45 °F /  7.2 °C 43.6 °F /  6.4 °C 30.22in /  1023.2hPa West 2mph /  3.2km/h 3mph /  4.8km/h 95% 0.00in /  0mm 28 W/m2
07:00 44.6 °F /  7 °C 43.3 °F /  6.3 °C 30.22in /  1023.2hPa WSW 1mph /  1.6km/h 3mph /  4.8km/h 95% 0.00in /  0mm 36 W/m2
07:10 44.2 °F /  6.8 °C 42.9 °F /  6.1 °C 30.22in /  1023.2hPa WSW 1mph /  1.6km/h 2mph /  3.2km/h 95% 0.00in /  0mm 48 W/m2
07:20 44.1 °F /  6.7 °C 42.7 °F /  5.9 °C 30.23in /  1023.6hPa West 1mph /  1.6km/h 2mph /  3.2km/h 95% 0.00in /  0mm 72 W/m2
07:30 44.1 °F /  6.7 °C 43 °F /  6.1 °C 30.23in /  1023.6hPa WSW 1mph /  1.6km/h 3mph /  4.8km/h 96% 0.00in /  0mm 129 W/m2
07:40 44.1 °F /  6.7 °C 43 °F /  6.1 °C 30.23in /  1023.6hPa WNW 1mph /  1.6km/h 2mph /  3.2km/h 96% 0.00in /  0mm 133 W/m2
07:50 44.4 °F /  6.9 °C 43.8 °F /  6.6 °C 30.24in /  1023.9hPa NNW 1mph /  1.6km/h 2mph /  3.2km/h 98% 0.00in /  0mm 188 W/m2
08:00 44.8 °F /  7.1 °C 44.5 °F /  6.9 °C 30.23in /  1023.6hPa NNE 1mph /  1.6km/h 3mph /  4.8km/h 99% 0.00in /  0mm 227 W/m2
08:10 45.5 °F /  7.5 °C 45.2 °F /  7.3 °C 30.24in /  1023.9hPa Calm   3mph /  4.8km/h 99% 0.00in /  0mm 262 W/m2
08:20 46.5 °F /  8.1 °C 46 °F /  7.8 °C 30.24in /  1023.9hPa WSW 2mph /  3.2km/h 6mph /  9.7km/h 98% 0.00in /  0mm 298 W/m2
08:30 48.5 °F /  9.2 °C 46.6 °F /  8.1 °C 30.24in /  1023.9hPa WSW 7mph /  11.3km/h 13mph /  20.9km/h 93% 0.00in /  0mm 336 W/m2
08:40 50.3 °F /  10.2 °C 47.2 °F /  8.4 °C 30.24in /  1023.9hPa West 6mph /  9.7km/h 10mph /  16.1km/h 89% 0.00in /  0mm 365 W/m2
08:50 51.8 °F /  11 °C 47.4 °F /  8.6 °C 30.23in /  1023.6hPa West 3mph /  4.8km/h 10mph /  16.1km/h 85% 0.00in /  0mm 394 W/m2
Knjazevac, Serbia
Compliments of Weather Underground - 2 mb